Time;durP1;ratioP1;P1;durP2;ratioP2;P2;SDS_P1;SDS_P2;PMS_P1;PMS_P2;Temp;Humidity;BMP_temperature;BMP_pressure;BME280_temperature;BME280_humidity;BME280_pressure;Samples;Min_cycle;Max_cycle;Signal;HPM_P1;HPM_P2
2021/11/29 00:00:11;;;;;;;9.63;6.03;;;0.50;99.90;;;;;;493996;241;27490;-73
2021/11/29 00:02:12;;;;;;;7.12;5.28;;;0.50;99.90;;;;;;493938;241;27498;-73
2021/11/29 00:04:13;;;;;;;10.27;6.60;;;0.50;99.90;;;;;;494044;241;27533;-73
2021/11/29 00:06:14;;;;;;;10.50;7.45;;;0.50;99.90;;;;;;494012;241;27565;-72
2021/11/29 00:08:15;;;;;;;9.10;6.78;;;0.50;99.90;;;;;;493971;241;27494;-73
2021/11/29 00:10:17;;;;;;;9.45;6.35;;;0.50;99.90;;;;;;493974;241;28442;-72
2021/11/29 00:12:18;;;;;;;8.38;6.22;;;0.50;99.90;;;;;;494014;241;28047;-73
2021/11/29 00:14:19;;;;;;;10.18;6.37;;;0.50;99.90;;;;;;494015;241;29261;-73
2021/11/29 00:16:20;;;;;;;9.32;5.90;;;0.60;99.90;;;;;;493955;241;27582;-73
2021/11/29 00:18:22;;;;;;;9.93;6.75;;;0.60;99.90;;;;;;493883;241;27581;-73
2021/11/29 00:20:23;;;;;;;9.18;6.35;;;0.60;99.90;;;;;;493961;241;27627;-74
2021/11/29 00:22:24;;;;;;;8.93;6.10;;;0.60;99.90;;;;;;493950;241;27592;-73
2021/11/29 00:24:25;;;;;;;9.57;6.62;;;0.60;99.90;;;;;;493943;241;27526;-72
2021/11/29 00:26:27;;;;;;;10.45;6.80;;;0.60;99.90;;;;;;493926;241;27561;-73
2021/11/29 00:28:28;;;;;;;8.40;6.10;;;0.50;99.90;;;;;;493934;241;27514;-73
2021/11/29 00:30:29;;;;;;;7.93;6.00;;;0.50;99.90;;;;;;493985;241;27508;-73
2021/11/29 00:32:30;;;;;;;6.87;5.32;;;0.50;99.90;;;;;;493979;241;27595;-73
2021/11/29 00:34:32;;;;;;;8.07;5.85;;;0.50;99.90;;;;;;493967;241;27601;-73
2021/11/29 00:36:33;;;;;;;8.52;6.45;;;0.50;99.90;;;;;;493940;241;28035;-74
2021/11/29 00:38:34;;;;;;;10.07;5.53;;;0.50;99.90;;;;;;493973;241;28007;-73
2021/11/29 00:40:35;;;;;;;9.73;6.40;;;0.60;99.90;;;;;;493988;241;27981;-74
2021/11/29 00:42:37;;;;;;;9.70;6.35;;;0.60;99.90;;;;;;493992;241;29148;-74
2021/11/29 00:44:38;;;;;;;8.55;5.78;;;0.70;99.90;;;;;;494011;241;27497;-74
2021/11/29 00:46:39;;;;;;;10.57;6.70;;;0.70;99.90;;;;;;494004;241;27473;-72
2021/11/29 00:48:40;;;;;;;8.75;6.15;;;0.70;99.90;;;;;;494012;241;27612;-73
2021/11/29 00:50:42;;;;;;;10.18;6.60;;;0.70;99.90;;;;;;494029;241;27498;-73
2021/11/29 00:52:43;;;;;;;9.35;6.60;;;0.70;99.90;;;;;;494005;241;27548;-73
2021/11/29 00:54:44;;;;;;;8.63;6.70;;;0.70;99.90;;;;;;493997;241;27514;-73
2021/11/29 00:56:45;;;;;;;8.88;6.45;;;0.70;99.90;;;;;;494005;241;27863;-73
2021/11/29 00:58:47;;;;;;;10.80;6.60;;;0.80;99.90;;;;;;494030;241;27480;-76
2021/11/29 01:00:48;;;;;;;9.90;7.03;;;0.80;99.90;;;;;;494029;241;27969;-74
2021/11/29 01:02:49;;;;;;;10.45;7.43;;;0.90;99.90;;;;;;494020;241;27957;-73
2021/11/29 01:04:50;;;;;;;10.18;6.90;;;0.90;99.90;;;;;;493943;241;28068;-73
2021/11/29 01:06:52;;;;;;;9.50;6.55;;;0.80;99.90;;;;;;493997;241;27514;-73
2021/11/29 01:08:53;;;;;;;10.20;6.60;;;0.80;99.90;;;;;;494007;241;27575;-73
2021/11/29 01:10:54;;;;;;;10.23;6.97;;;0.80;99.90;;;;;;494009;241;27592;-74
2021/11/29 01:12:55;;;;;;;8.30;6.40;;;0.70;99.90;;;;;;494004;241;27469;-73
2021/11/29 01:14:57;;;;;;;8.35;6.30;;;0.80;99.90;;;;;;493987;241;27513;-73
2021/11/29 01:16:58;;;;;;;9.15;6.20;;;0.70;99.90;;;;;;494023;241;27556;-73
2021/11/29 01:18:59;;;;;;;9.43;6.53;;;0.70;99.90;;;;;;494031;241;27580;-73
2021/11/29 01:21:00;;;;;;;9.52;6.40;;;0.70;99.90;;;;;;494005;241;27521;-74
2021/11/29 01:23:02;;;;;;;9.05;6.72;;;0.60;99.90;;;;;;493986;241;27563;-73
2021/11/29 01:25:03;;;;;;;11.70;7.90;;;0.70;99.90;;;;;;493959;241;28215;-74
2021/11/29 01:27:04;;;;;;;11.80;7.03;;;0.60;99.90;;;;;;493997;241;28021;-74
2021/11/29 01:29:06;;;;;;;9.18;6.40;;;0.70;99.90;;;;;;494021;241;28029;-72
2021/11/29 01:31:07;;;;;;;12.55;8.55;;;0.70;99.90;;;;;;493981;241;27963;-73
2021/11/29 01:33:08;;;;;;;11.32;7.95;;;0.70;99.90;;;;;;494013;241;27449;-73
2021/11/29 01:35:09;;;;;;;11.27;7.47;;;0.80;99.90;;;;;;494023;241;27511;-73
2021/11/29 01:37:10;;;;;;;10.95;7.30;;;0.80;99.90;;;;;;494061;241;27492;-74
2021/11/29 01:39:12;;;;;;;10.48;7.03;;;0.70;99.90;;;;;;493991;240;27501;-73
2021/11/29 01:41:16;;;;;;;10.50;7.25;;;0.80;99.90;;;;;;494002;241;27510;-73
2021/11/29 01:43:14;;;;;;;10.90;8.02;;;0.80;99.90;;;;;;493697;241;27565;-73
2021/11/29 01:45:15;;;;;;;10.80;7.22;;;0.80;99.90;;;;;;494026;241;28062;-73
2021/11/29 01:47:17;;;;;;;8.60;6.93;;;0.80;99.90;;;;;;494017;241;27978;-73
2021/11/29 01:49:18;;;;;;;11.15;6.80;;;0.80;99.90;;;;;;493994;241;27933;-73
2021/11/29 01:51:19;;;;;;;9.35;6.25;;;0.80;99.90;;;;;;493970;241;28099;-73
2021/11/29 01:53:20;;;;;;;10.63;7.00;;;0.80;99.90;;;;;;493974;241;27482;-73
2021/11/29 01:55:22;;;;;;;10.20;6.65;;;0.90;99.90;;;;;;494029;241;27457;-73
2021/11/29 01:57:23;;;;;;;9.45;7.30;;;0.80;99.90;;;;;;494003;241;27593;-73
2021/11/29 01:59:24;;;;;;;10.05;7.12;;;0.90;99.90;;;;;;494005;241;27462;-73
2021/11/29 02:01:25;;;;;;;8.90;6.53;;;0.90;99.90;;;;;;493983;241;27610;-73
2021/11/29 02:03:27;;;;;;;11.18;7.15;;;0.90;99.90;;;;;;493948;241;27509;-73
2021/11/29 02:05:28;;;;;;;9.27;6.68;;;0.90;99.90;;;;;;493991;241;27476;-72
2021/11/29 02:07:29;;;;;;;9.68;6.87;;;0.80;99.90;;;;;;493961;241;27572;-73
2021/11/29 02:09:30;;;;;;;9.90;6.60;;;0.90;99.90;;;;;;494004;241;27911;-72
2021/11/29 02:11:32;;;;;;;10.07;6.53;;;0.90;99.90;;;;;;493958;241;28099;-73
2021/11/29 02:13:33;;;;;;;10.73;7.53;;;0.90;99.90;;;;;;494011;237;28066;-74
2021/11/29 02:15:34;;;;;;;14.00;8.00;;;0.90;99.90;;;;;;494004;241;27468;-73
2021/11/29 02:17:35;;;;;;;11.32;7.95;;;0.90;99.90;;;;;;493990;241;27482;-73
2021/11/29 02:19:37;;;;;;;12.18;7.82;;;0.90;99.90;;;;;;493946;241;27481;-73
2021/11/29 02:21:38;;;;;;;10.88;7.68;;;0.90;99.90;;;;;;493846;241;27533;-74
2021/11/29 02:23:39;;;;;;;10.48;7.20;;;0.80;99.90;;;;;;493831;241;27522;-72
2021/11/29 02:25:40;;;;;;;10.77;7.37;;;0.80;99.90;;;;;;493802;241;27525;-73
2021/11/29 02:27:42;;;;;;;11.85;8.02;;;0.90;99.90;;;;;;493749;241;27537;-73
2021/11/29 02:29:43;;;;;;;10.23;7.93;;;0.80;99.90;;;;;;493661;241;28696;-73
2021/11/29 02:31:44;;;;;;;13.77;7.97;;;0.80;99.90;;;;;;493895;241;28045;-73
2021/11/29 02:33:45;;;;;;;12.27;7.80;;;0.80;99.90;;;;;;493996;241;29097;-73
2021/11/29 02:35:47;;;;;;;9.65;7.10;;;0.80;99.90;;;;;;493968;240;27473;-73
2021/11/29 02:37:49;;;;;;;14.35;8.40;;;0.80;99.90;;;;;;494007;241;27507;-73
2021/11/29 02:39:49;;;;;;;10.05;7.25;;;0.80;99.90;;;;;;493986;241;27506;-72
2021/11/29 02:41:50;;;;;;;12.48;7.43;;;0.80;99.90;;;;;;493979;241;27457;-73
2021/11/29 02:43:52;;;;;;;11.85;7.93;;;0.80;99.90;;;;;;493992;241;27521;-74
2021/11/29 02:45:53;;;;;;;9.98;6.50;;;0.80;99.90;;;;;;493981;241;27516;-73
2021/11/29 02:47:54;;;;;;;12.60;7.32;;;0.90;99.90;;;;;;493975;241;27517;-73
2021/11/29 02:49:55;;;;;;;10.80;7.65;;;0.80;99.90;;;;;;494010;241;27520;-73
2021/11/29 02:51:57;;;;;;;8.32;6.03;;;0.90;99.90;;;;;;493996;241;27941;-73
2021/11/29 02:53:58;;;;;;;12.23;8.07;;;0.90;99.90;;;;;;493950;241;27980;-73
2021/11/29 02:55:59;;;;;;;10.77;7.55;;;0.90;99.90;;;;;;493982;241;27936;-72
2021/11/29 02:58:00;;;;;;;12.07;7.80;;;0.90;99.90;;;;;;493964;241;27522;-73
2021/11/29 03:00:02;;;;;;;12.15;7.35;;;0.90;99.90;;;;;;494015;241;27532;-73
2021/11/29 03:02:03;;;;;;;10.77;7.53;;;0.90;99.90;;;;;;494008;237;27596;-74
2021/11/29 03:04:04;;;;;;;11.82;8.05;;;0.90;99.90;;;;;;493993;241;27525;-73
2021/11/29 03:06:05;;;;;;;11.00;7.60;;;0.90;99.90;;;;;;493953;241;27473;-73
2021/11/29 03:08:07;;;;;;;9.63;6.72;;;0.80;99.90;;;;;;493992;241;27489;-73
2021/11/29 03:10:08;;;;;;;11.88;8.07;;;0.70;99.90;;;;;;494003;241;27530;-74
2021/11/29 03:12:09;;;;;;;11.50;7.37;;;0.70;99.90;;;;;;493967;241;27905;-72
2021/11/29 03:14:11;;;;;;;11.00;7.50;;;0.60;99.90;;;;;;493977;241;28077;-73
2021/11/29 03:16:12;;;;;;;12.20;7.75;;;0.60;99.90;;;;;;493998;241;28669;-72
2021/11/29 03:18:13;;;;;;;11.00;7.30;;;0.60;99.90;;;;;;493993;241;27613;-73
2021/11/29 03:20:14;;;;;;;14.90;9.05;;;0.60;99.90;;;;;;494020;241;27501;-73
2021/11/29 03:22:16;;;;;;;13.15;8.50;;;0.60;99.90;;;;;;494026;241;27476;-72
2021/11/29 03:24:17;;;;;;;13.52;8.43;;;0.60;99.90;;;;;;493982;241;27522;-73
2021/11/29 03:26:18;;;;;;;16.70;10.07;;;0.60;99.90;;;;;;494037;241;27599;-72
2021/11/29 03:28:19;;;;;;;16.35;9.85;;;0.60;99.90;;;;;;494010;241;27474;-73
2021/11/29 03:30:21;;;;;;;14.55;9.43;;;0.60;99.90;;;;;;494024;241;27995;-73
2021/11/29 03:32:23;;;;;;;15.50;9.50;;;0.60;99.90;;;;;;494011;237;27922;-72
2021/11/29 03:34:23;;;;;;;17.27;9.70;;;0.60;99.90;;;;;;493981;241;28074;-72
2021/11/29 03:36:24;;;;;;;14.77;9.05;;;0.60;99.90;;;;;;494034;241;27648;-72
2021/11/29 03:38:26;;;;;;;15.68;9.85;;;0.60;99.90;;;;;;494059;241;27460;-72
2021/11/29 03:40:27;;;;;;;15.60;8.82;;;0.60;99.90;;;;;;494019;241;27576;-72
2021/11/29 03:42:28;;;;;;;13.48;8.35;;;0.60;99.90;;;;;;494020;241;27469;-72
2021/11/29 03:44:29;;;;;;;14.23;8.45;;;0.50;99.90;;;;;;494012;241;27589;-72
2021/11/29 03:46:31;;;;;;;12.18;8.10;;;0.40;99.90;;;;;;494064;241;27551;-73
2021/11/29 03:48:32;;;;;;;16.70;9.05;;;0.40;99.90;;;;;;494042;241;27470;-72
2021/11/29 03:50:33;;;;;;;11.80;8.35;;;0.30;99.90;;;;;;494010;241;27972;-73
2021/11/29 03:52:34;;;;;;;14.20;8.30;;;0.10;99.90;;;;;;493983;241;27992;-72
2021/11/29 03:54:36;;;;;;;12.15;8.00;;;0.10;99.90;;;;;;494006;241;28044;-73
2021/11/29 03:56:37;;;;;;;11.23;7.85;;;0.00;99.90;;;;;;493943;241;27513;-73
2021/11/29 03:58:38;;;;;;;13.52;8.27;;;0.00;99.90;;;;;;494018;241;27572;-72
2021/11/29 04:00:39;;;;;;;12.37;7.45;;;-0.10;99.90;;;;;;493982;241;27585;-72
2021/11/29 04:02:41;;;;;;;13.32;8.80;;;-0.20;99.90;;;;;;494038;241;27481;-72
2021/11/29 04:04:42;;;;;;;12.00;8.25;;;-0.30;99.90;;;;;;493839;241;27886;-72
2021/11/29 04:06:43;;;;;;;13.30;8.23;;;-0.30;99.90;;;;;;494009;241;27603;-73
2021/11/29 04:08:44;;;;;;;14.13;8.50;;;-0.40;99.90;;;;;;493986;241;27985;-72
2021/11/29 04:10:46;;;;;;;12.52;7.68;;;-0.40;99.90;;;;;;493979;241;28060;-72
2021/11/29 04:12:47;;;;;;;12.05;7.57;;;-0.40;99.90;;;;;;494055;237;27521;-74
2021/11/29 04:14:48;;;;;;;13.57;8.40;;;-0.40;99.90;;;;;;494001;241;27946;-73
2021/11/29 04:16:49;;;;;;;13.55;8.55;;;-0.50;99.90;;;;;;494017;241;28072;-73
2021/11/29 04:18:51;;;;;;;11.60;8.23;;;-0.60;99.90;;;;;;494008;237;27928;-73
2021/11/29 04:20:52;;;;;;;13.90;8.13;;;-0.60;99.90;;;;;;493958;241;27572;-72
2021/11/29 04:22:54;;;;;;;13.20;8.75;;;-0.50;99.90;;;;;;494033;241;27540;-73
2021/11/29 04:24:59;;;;;;;12.45;7.55;;;-0.60;99.90;;;;;;494018;241;27509;-73
2021/11/29 04:27:02;;;;;;;13.13;7.70;;;-0.60;99.90;;;;;;493754;241;28000;-72
2021/11/29 04:28:59;;;;;;;13.15;8.55;;;-0.60;99.90;;;;;;493609;241;27990;-72
2021/11/29 04:30:59;;;;;;;11.93;7.65;;;-0.70;99.90;;;;;;493964;241;27600;-74
2021/11/29 04:33:01;;;;;;;13.65;8.65;;;-0.70;99.90;;;;;;494029;241;27565;-72
2021/11/29 04:35:02;;;;;;;12.85;8.40;;;-0.80;99.90;;;;;;493975;241;27536;-72
2021/11/29 04:37:03;;;;;;;13.00;8.73;;;-0.80;99.90;;;;;;493998;241;27508;-72
2021/11/29 04:39:04;;;;;;;14.80;8.75;;;-0.80;99.90;;;;;;494011;241;27491;-73
2021/11/29 04:41:06;;;;;;;13.60;8.48;;;-0.80;99.90;;;;;;494010;241;27547;-73
2021/11/29 04:43:07;;;;;;;12.73;7.97;;;-0.80;99.90;;;;;;493951;241;28023;-72
2021/11/29 04:45:08;;;;;;;12.80;8.02;;;-0.90;99.90;;;;;;494011;241;27980;-73
2021/11/29 04:47:09;;;;;;;14.02;8.88;;;-0.90;99.90;;;;;;494021;241;27536;-72
2021/11/29 04:49:11;;;;;;;15.02;9.43;;;-0.90;99.90;;;;;;494032;241;27473;-72
2021/11/29 04:51:12;;;;;;;13.62;8.88;;;-0.90;99.90;;;;;;494031;241;27512;-73
2021/11/29 04:53:13;;;;;;;11.10;7.53;;;-0.90;99.90;;;;;;493989;241;27521;-72
2021/11/29 04:55:14;;;;;;;15.07;8.52;;;-0.90;99.90;;;;;;494018;241;27522;-72
2021/11/29 04:57:16;;;;;;;12.18;7.57;;;-0.90;99.90;;;;;;494024;241;27958;-74
2021/11/29 04:59:17;;;;;;;14.20;7.82;;;-1.00;99.90;;;;;;494031;241;28065;-72
2021/11/29 05:01:18;;;;;;;12.20;7.30;;;-1.00;99.90;;;;;;493987;241;27975;-72
2021/11/29 05:03:20;;;;;;;11.40;7.62;;;-1.10;99.90;;;;;;494002;241;27469;-71
2021/11/29 05:05:22;;;;;;;12.75;7.60;;;-1.10;99.90;;;;;;493967;241;27486;-73
2021/11/29 05:07:25;;;;;;;12.80;7.80;;;-1.10;99.90;;;;;;493953;241;27522;-72
2021/11/29 05:09:24;;;;;;;18.15;9.02;;;-1.20;99.90;;;;;;493850;241;27993;-72
2021/11/29 05:11:25;;;;;;;12.32;7.55;;;-1.30;99.90;;;;;;493965;241;29012;-73
2021/11/29 05:13:27;;;;;;;11.98;8.32;;;-1.30;99.90;;;;;;494001;241;27585;-73
2021/11/29 05:15:28;;;;;;;14.00;8.05;;;-1.40;99.90;;;;;;493948;241;27480;-72
2021/11/29 05:17:29;;;;;;;14.07;8.90;;;-1.40;99.90;;;;;;494018;241;27562;-72
2021/11/29 05:19:30;;;;;;;15.00;9.10;;;-1.40;99.90;;;;;;494027;241;27641;-72
2021/11/29 05:21:33;;;;;;;17.75;9.25;;;-1.50;99.90;;;;;;494026;241;27368;-72
2021/11/29 05:23:33;;;;;;;16.70;9.82;;;-1.50;99.90;;;;;;493918;241;27541;-72
2021/11/29 05:25:34;;;;;;;19.90;9.05;;;-1.50;99.90;;;;;;493967;241;28846;-72
2021/11/29 05:27:35;;;;;;;14.82;8.98;;;-1.50;99.90;;;;;;494004;241;27926;-72
2021/11/29 05:29:37;;;;;;;15.20;9.10;;;-1.50;99.90;;;;;;494001;241;27513;-72
2021/11/29 05:31:38;;;;;;;18.55;8.70;;;-1.50;99.90;;;;;;493944;241;27493;-73
2021/11/29 05:33:39;;;;;;;12.23;7.50;;;-1.50;99.90;;;;;;493978;241;27501;-73
2021/11/29 05:35:40;;;;;;;14.48;8.60;;;-1.50;99.90;;;;;;494012;241;27437;-73
2021/11/29 05:37:42;;;;;;;14.45;8.23;;;-1.50;99.90;;;;;;494016;241;27496;-72
2021/11/29 05:39:43;;;;;;;11.48;7.37;;;-1.50;99.90;;;;;;494003;241;28048;-73
2021/11/29 05:41:44;;;;;;;9.90;6.55;;;-1.50;99.90;;;;;;493984;237;28199;-71
2021/11/29 05:43:45;;;;;;;12.52;7.43;;;-1.50;99.90;;;;;;493976;241;28989;-72
2021/11/29 05:45:47;;;;;;;11.10;7.35;;;-1.50;99.90;;;;;;493997;241;27630;-74
2021/11/29 05:47:48;;;;;;;11.20;7.00;;;-1.40;99.90;;;;;;493967;241;27549;-71
2021/11/29 05:49:49;;;;;;;9.18;6.35;;;-1.50;99.90;;;;;;493979;241;27583;-72
2021/11/29 05:51:51;;;;;;;12.37;7.07;;;-1.50;99.90;;;;;;493961;241;27273;-73
2021/11/29 05:53:52;;;;;;;10.10;7.00;;;-1.50;99.90;;;;;;494012;241;27473;-73
2021/11/29 05:55:53;;;;;;;8.77;6.37;;;-1.50;99.90;;;;;;494016;241;27520;-72
2021/11/29 05:57:54;;;;;;;9.45;5.60;;;-1.50;99.90;;;;;;494015;241;27936;-72
2021/11/29 05:59:56;;;;;;;8.38;6.35;;;-1.50;99.90;;;;;;493972;241;29153;-73
2021/11/29 06:01:57;;;;;;;8.00;5.90;;;-1.50;99.90;;;;;;493991;241;28046;-71
2021/11/29 06:03:58;;;;;;;9.23;6.40;;;-1.50;99.90;;;;;;494056;237;27342;-72
2021/11/29 06:05:59;;;;;;;9.75;6.70;;;-1.50;99.90;;;;;;493998;241;27495;-73
2021/11/29 06:08:01;;;;;;;10.25;6.22;;;-1.40;99.90;;;;;;494007;241;27433;-72
2021/11/29 06:10:02;;;;;;;8.52;5.78;;;-1.40;99.90;;;;;;493975;237;27288;-72
2021/11/29 06:12:03;;;;;;;11.38;6.68;;;-1.50;99.90;;;;;;494010;241;27740;-74
2021/11/29 06:14:04;;;;;;;7.70;5.53;;;-1.50;99.90;;;;;;494013;241;27355;-72
2021/11/29 06:16:06;;;;;;;8.65;5.95;;;-1.50;99.90;;;;;;493970;241;27970;-73
2021/11/29 06:18:07;;;;;;;9.45;6.20;;;-1.50;99.90;;;;;;493990;241;27947;-72
2021/11/29 06:20:08;;;;;;;13.65;7.00;;;-1.50;99.90;;;;;;493958;241;27362;-72
2021/11/29 06:22:09;;;;;;;8.15;5.00;;;-1.50;99.90;;;;;;494021;241;27506;-73
2021/11/29 06:24:11;;;;;;;9.80;5.80;;;-1.40;99.90;;;;;;493997;241;27487;-72
2021/11/29 06:26:12;;;;;;;9.00;5.57;;;-1.40;99.90;;;;;;494007;241;27270;-73
2021/11/29 06:28:13;;;;;;;7.93;5.65;;;-1.30;99.90;;;;;;493981;241;27167;-72
2021/11/29 06:30:14;;;;;;;9.73;6.35;;;-1.40;99.90;;;;;;493955;241;27517;-72
2021/11/29 06:32:16;;;;;;;7.10;5.57;;;-1.40;99.90;;;;;;493997;241;27596;-73
2021/11/29 06:34:17;;;;;;;9.48;5.87;;;-1.40;99.90;;;;;;494017;241;27566;-72
2021/11/29 06:36:18;;;;;;;7.87;6.10;;;-1.40;99.90;;;;;;493969;241;27981;-71
2021/11/29 06:38:19;;;;;;;8.93;6.40;;;-1.50;99.90;;;;;;493963;241;27714;-72
2021/11/29 06:40:21;;;;;;;8.88;6.37;;;-1.50;99.90;;;;;;494010;241;27386;-73
2021/11/29 06:42:22;;;;;;;8.55;5.90;;;-1.50;99.90;;;;;;494017;241;27495;-72
2021/11/29 06:44:23;;;;;;;11.32;6.87;;;-1.50;99.90;;;;;;493997;241;27635;-72
2021/11/29 06:46:24;;;;;;;9.43;6.28;;;-1.60;99.90;;;;;;493946;241;27530;-73
2021/11/29 06:48:26;;;;;;;7.45;5.75;;;-1.60;99.90;;;;;;494007;241;27532;-74
2021/11/29 06:50:27;;;;;;;7.90;6.03;;;-1.70;99.90;;;;;;493990;241;27152;-72
2021/11/29 06:52:28;;;;;;;8.35;5.90;;;-1.70;99.90;;;;;;493949;241;27505;-73
2021/11/29 06:54:32;;;;;;;9.18;6.15;;;-1.70;99.90;;;;;;493987;241;27952;-72
2021/11/29 06:56:31;;;;;;;10.30;6.10;;;-1.60;99.90;;;;;;493818;241;28062;-72
2021/11/29 06:58:32;;;;;;;8.85;6.60;;;-1.60;99.90;;;;;;494020;241;27517;-73
2021/11/29 07:00:33;;;;;;;9.43;6.78;;;-1.50;99.90;;;;;;493942;241;27612;-73
2021/11/29 07:02:34;;;;;;;8.43;6.90;;;-1.50;99.90;;;;;;494016;241;27390;-72
2021/11/29 07:04:36;;;;;;;10.23;6.93;;;-1.50;99.90;;;;;;493975;241;27596;-72
2021/11/29 07:06:39;;;;;;;7.55;6.12;;;-1.40;99.90;;;;;;493918;241;27615;-72
2021/11/29 07:08:39;;;;;;;9.88;6.03;;;-1.30;99.90;;;;;;493927;241;27410;-73
2021/11/29 07:10:40;;;;;;;8.02;5.57;;;-1.30;99.90;;;;;;493979;241;27510;-73
2021/11/29 07:12:42;;;;;;;8.07;6.10;;;-1.20;99.90;;;;;;493955;241;27544;-72
2021/11/29 07:14:43;;;;;;;9.32;6.47;;;-1.20;99.90;;;;;;493984;241;28452;-73
2021/11/29 07:16:48;;;;;;;7.65;6.10;;;-1.10;99.90;;;;;;493953;241;29131;-73
2021/11/29 07:18:46;;;;;;;10.25;6.65;;;-1.00;99.90;;;;;;493725;241;27474;-73
2021/11/29 07:20:47;;;;;;;9.20;6.10;;;-1.00;99.90;;;;;;493953;241;27501;-73
2021/11/29 07:22:48;;;;;;;8.05;5.62;;;-1.00;99.90;;;;;;493993;241;27346;-73
2021/11/29 07:24:50;;;;;;;8.00;5.28;;;-0.90;99.90;;;;;;493973;241;27522;-73
2021/11/29 07:26:50;;;;;;;11.07;5.97;;;-0.80;99.90;;;;;;493939;241;27435;-74
2021/11/29 07:28:52;;;;;;;7.12;5.40;;;-0.80;99.90;;;;;;493986;241;27497;-72
2021/11/29 07:30:53;;;;;;;8.13;5.90;;;-0.80;99.90;;;;;;493967;241;27506;-75
2021/11/29 07:32:55;;;;;;;8.70;5.85;;;-0.80;99.90;;;;;;493960;241;27949;-72
2021/11/29 07:34:56;;;;;;;7.47;5.20;;;-0.80;99.90;;;;;;493943;241;28927;-73
2021/11/29 07:36:57;;;;;;;8.80;6.18;;;-0.80;99.90;;;;;;493998;241;29038;-74
2021/11/29 07:38:58;;;;;;;11.48;6.00;;;-0.80;99.90;;;;;;493968;241;27462;-73
2021/11/29 07:40:59;;;;;;;7.12;5.30;;;-0.80;99.90;;;;;;493984;241;27493;-73
2021/11/29 07:43:01;;;;;;;6.62;5.32;;;-0.80;99.90;;;;;;493955;241;27538;-72
2021/11/29 07:45:02;;;;;;;5.78;5.18;;;-0.80;99.90;;;;;;493943;241;27494;-73
2021/11/29 07:47:03;;;;;;;7.55;5.57;;;-0.80;99.90;;;;;;494005;241;27513;-73
2021/11/29 07:49:05;;;;;;;7.50;5.30;;;-0.70;99.90;;;;;;493895;241;27508;-74
2021/11/29 07:51:06;;;;;;;9.45;5.75;;;-0.70;99.90;;;;;;493912;241;27514;-72
2021/11/29 07:53:07;;;;;;;6.15;5.05;;;-0.70;99.90;;;;;;493963;241;28796;-73
2021/11/29 07:55:11;;;;;;;7.75;5.32;;;-0.70;99.90;;;;;;493973;241;29108;-72
2021/11/29 07:57:11;;;;;;;8.88;5.68;;;-0.70;99.90;;;;;;493770;241;27604;-73
2021/11/29 07:59:11;;;;;;;9.40;5.30;;;-0.60;99.90;;;;;;493879;241;27477;-72
2021/11/29 08:01:12;;;;;;;9.35;6.00;;;-0.60;99.90;;;;;;493921;241;27501;-73
2021/11/29 08:03:13;;;;;;;5.55;4.70;;;-0.50;99.90;;;;;;493978;241;27564;-72
2021/11/29 08:05:14;;;;;;;7.75;5.37;;;-0.50;99.90;;;;;;493986;241;27607;-72
2021/11/29 08:07:17;;;;;;;6.65;4.75;;;-0.50;99.90;;;;;;494010;241;27560;-73
2021/11/29 08:09:17;;;;;;;6.80;5.37;;;-0.50;99.90;;;;;;493911;241;27534;-73
2021/11/29 08:11:18;;;;;;;6.53;4.82;;;-0.50;99.90;;;;;;493996;237;27497;-73
2021/11/29 08:13:19;;;;;;;6.50;5.05;;;-0.40;99.90;;;;;;494029;241;28064;-73
2021/11/29 08:15:21;;;;;;;7.40;5.20;;;-0.40;99.90;;;;;;494012;241;29185;-72
2021/11/29 08:17:22;;;;;;;6.78;4.80;;;-0.40;99.90;;;;;;493999;241;27512;-73
2021/11/29 08:19:23;;;;;;;7.15;4.87;;;-0.40;99.90;;;;;;493974;241;27535;-73
2021/11/29 08:21:24;;;;;;;8.48;5.28;;;-0.40;99.90;;;;;;493972;241;27497;-73
2021/11/29 08:23:26;;;;;;;9.07;5.90;;;-0.50;99.90;;;;;;494031;241;27502;-74
2021/11/29 08:25:27;;;;;;;8.30;5.72;;;-0.50;99.90;;;;;;494020;241;27605;-72
2021/11/29 08:27:28;;;;;;;11.00;4.90;;;-0.50;99.90;;;;;;494025;241;27513;-72
2021/11/29 08:29:29;;;;;;;7.53;5.32;;;-0.50;99.90;;;;;;493972;241;27459;-72
2021/11/29 08:31:31;;;;;;;7.97;5.22;;;-0.50;99.90;;;;;;494041;241;27908;-72
2021/11/29 08:33:32;;;;;;;6.60;5.30;;;-0.50;99.90;;;;;;494025;241;27966;-73
2021/11/29 08:35:33;;;;;;;7.43;5.57;;;-0.60;99.90;;;;;;494018;241;29014;-72
2021/11/29 08:37:34;;;;;;;7.20;5.28;;;-0.60;99.90;;;;;;493990;241;27537;-73
2021/11/29 08:39:36;;;;;;;6.40;4.97;;;-0.60;99.90;;;;;;493976;241;27497;-72
2021/11/29 08:41:37;;;;;;;6.93;5.60;;;-0.60;99.90;;;;;;494021;241;27525;-72
2021/11/29 08:43:39;;;;;;;6.43;5.32;;;-0.70;99.90;;;;;;494014;241;27541;-73
2021/11/29 08:45:39;;;;;;;6.70;4.80;;;-0.70;99.90;;;;;;493991;241;27517;-72
2021/11/29 08:47:41;;;;;;;7.50;5.35;;;-0.60;99.90;;;;;;493972;241;27505;-72
2021/11/29 08:49:45;;;;;;;7.60;5.55;;;-0.60;99.90;;;;;;493992;241;27877;-73
2021/11/29 08:51:43;;;;;;;6.25;5.35;;;-0.60;99.90;;;;;;493796;241;27465;-72
2021/11/29 08:53:44;;;;;;;7.72;5.28;;;-0.50;99.90;;;;;;494002;241;27628;-73
2021/11/29 08:55:46;;;;;;;8.23;5.72;;;-0.50;99.90;;;;;;493961;241;27451;-72
2021/11/29 08:57:47;;;;;;;6.85;5.22;;;-0.40;99.90;;;;;;493989;241;27529;-73
2021/11/29 08:59:48;;;;;;;5.32;4.57;;;-0.30;99.90;;;;;;494024;241;27518;-73
2021/11/29 09:01:49;;;;;;;7.95;6.00;;;-0.40;99.90;;;;;;494015;241;27552;-72
2021/11/29 09:03:51;;;;;;;7.90;5.80;;;-0.40;99.90;;;;;;494017;241;27585;-74
2021/11/29 09:05:52;;;;;;;8.27;5.95;;;-0.40;99.90;;;;;;493982;237;28049;-72
2021/11/29 09:07:53;;;;;;;9.02;5.55;;;-0.30;99.90;;;;;;494002;241;29042;-73
2021/11/29 09:09:54;;;;;;;8.15;6.37;;;-0.30;99.90;;;;;;494006;241;27543;-74
2021/11/29 09:11:56;;;;;;;8.25;5.95;;;-0.10;99.90;;;;;;493963;241;27481;-73
2021/11/29 09:13:57;;;;;;;9.15;5.97;;;-0.10;99.90;;;;;;493983;241;27505;-73
2021/11/29 09:15:58;;;;;;;7.97;5.70;;;0.00;99.90;;;;;;493972;241;27548;-73
2021/11/29 09:17:59;;;;;;;9.50;6.15;;;0.20;99.90;;;;;;494001;241;27569;-73
2021/11/29 09:20:02;;;;;;;7.22;5.62;;;0.30;99.90;;;;;;494016;241;27611;-73
2021/11/29 09:22:02;;;;;;;8.57;6.07;;;0.40;99.90;;;;;;493890;241;27507;-73
2021/11/29 09:24:03;;;;;;;7.87;6.25;;;0.40;99.90;;;;;;493992;241;27503;-73
2021/11/29 09:26:04;;;;;;;8.07;5.90;;;0.40;99.90;;;;;;493988;241;27630;-73
2021/11/29 09:28:06;;;;;;;9.57;6.20;;;0.50;99.90;;;;;;494012;241;27929;-73
2021/11/29 09:30:07;;;;;;;9.98;6.47;;;0.50;99.90;;;;;;493977;241;28764;-73
2021/11/29 09:32:08;;;;;;;8.57;5.95;;;0.50;99.90;;;;;;494003;241;27956;-73
2021/11/29 09:34:09;;;;;;;7.62;6.15;;;0.60;99.90;;;;;;493976;241;29046;-74
2021/11/29 09:36:11;;;;;;;14.48;6.45;;;0.60;99.90;;;;;;493993;241;27516;-73
2021/11/29 09:38:12;;;;;;;13.40;7.28;;;0.60;99.90;;;;;;493977;241;27471;-74
2021/11/29 09:40:13;;;;;;;7.87;5.70;;;0.60;99.90;;;;;;494008;241;27521;-74
2021/11/29 09:42:15;;;;;;;10.10;6.78;;;0.60;99.90;;;;;;493967;241;27616;-73
2021/11/29 09:44:16;;;;;;;9.75;7.10;;;0.50;99.90;;;;;;493975;241;27514;-73
2021/11/29 09:46:17;;;;;;;8.73;6.37;;;0.60;99.90;;;;;;494005;241;27536;-73
2021/11/29 09:48:18;;;;;;;6.65;5.45;;;0.60;99.90;;;;;;494014;239;27475;-73
2021/11/29 09:50:19;;;;;;;10.80;7.10;;;0.60;99.90;;;;;;493989;241;27587;-74
2021/11/29 09:52:21;;;;;;;6.47;5.65;;;0.60;99.90;;;;;;493983;241;27949;-73
2021/11/29 09:54:22;;;;;;;8.43;6.47;;;0.60;99.90;;;;;;493984;241;27943;-73
2021/11/29 09:56:23;;;;;;;8.75;6.30;;;0.60;99.90;;;;;;494008;241;28061;-74
2021/11/29 09:58:24;;;;;;;10.63;6.07;;;0.60;99.90;;;;;;493983;241;28029;-73
2021/11/29 10:00:26;;;;;;;10.15;7.22;;;0.70;99.90;;;;;;493966;241;27536;-74
2021/11/29 10:02:27;;;;;;;8.68;6.82;;;0.80;99.90;;;;;;493954;241;27560;-73
2021/11/29 10:04:28;;;;;;;12.73;6.80;;;0.90;99.90;;;;;;493866;241;27473;-73
2021/11/29 10:06:30;;;;;;;9.63;6.62;;;1.00;99.90;;;;;;493997;241;27608;-73
2021/11/29 10:08:34;;;;;;;12.23;6.57;;;1.00;99.90;;;;;;493987;241;27549;-74
2021/11/29 10:10:32;;;;;;;12.37;6.30;;;1.00;99.90;;;;;;493665;241;27521;-73
2021/11/29 10:12:33;;;;;;;8.52;6.90;;;1.00;99.90;;;;;;493863;241;27461;-73
2021/11/29 10:14:35;;;;;;;8.82;6.05;;;1.00;99.90;;;;;;494002;241;27594;-73
2021/11/29 10:16:36;;;;;;;6.32;5.68;;;1.00;99.90;;;;;;493969;241;27979;-74
2021/11/29 10:18:37;;;;;;;10.93;6.68;;;1.00;99.90;;;;;;493974;241;28033;-72
2021/11/29 10:20:38;;;;;;;8.20;6.37;;;1.10;99.90;;;;;;493894;241;27988;-73
2021/11/29 10:22:41;;;;;;;8.40;5.85;;;1.10;99.90;;;;;;493814;241;28678;-73
2021/11/29 10:24:41;;;;;;;11.23;6.25;;;1.10;99.90;;;;;;493829;241;27530;-73
2021/11/29 10:26:42;;;;;;;7.37;5.87;;;1.20;99.90;;;;;;493886;241;27545;-74
2021/11/29 10:28:43;;;;;;;6.45;5.78;;;1.20;99.90;;;;;;493881;241;27470;-74
2021/11/29 10:30:45;;;;;;;7.20;5.87;;;1.30;99.90;;;;;;493955;241;27491;-73